createdAt,value
2022-09-06T00:00:19.699Z,63.37
2022-09-06T00:05:21.872Z,63.59
2022-09-06T00:10:23.892Z,61.81
2022-09-06T00:15:26.033Z,62.95
2022-09-06T00:20:28.754Z,61.34
2022-09-06T00:25:31.461Z,62.61
2022-09-06T00:30:34.502Z,62.74
2022-09-06T00:35:36.708Z,63.57
2022-09-06T00:40:38.686Z,60.85
2022-09-06T00:45:40.953Z,63.50
2022-09-06T00:50:44.709Z,63.86
2022-09-06T00:55:47.143Z,63.54
2022-09-06T01:00:49.282Z,64.01
2022-09-06T01:06:27.027Z,63.50
2022-09-06T01:12:05.022Z,63.57
2022-09-06T01:17:34.210Z,62.82
2022-09-06T01:23:00.378Z,63.13
2022-09-06T01:28:26.674Z,62.62
2022-09-06T01:33:44.986Z,62.35
2022-09-06T01:38:47.405Z,61.92
2022-09-06T01:43:50.785Z,60.37
2022-09-06T01:49:10.437Z,62.53
2022-09-06T01:54:44.630Z,63.27
2022-09-06T02:00:11.315Z,62.96
2022-09-06T02:05:37.753Z,63.59
2022-09-06T02:11:06.012Z,63.66
2022-09-06T02:16:10.588Z,63.16
2022-09-06T02:21:17.515Z,63.24
2022-09-06T02:26:24.726Z,62.49
2022-09-06T02:31:34.643Z,62.16
2022-09-06T02:36:37.759Z,62.36
2022-09-06T02:41:42.515Z,61.64
2022-09-06T02:46:44.697Z,61.67
2022-09-06T02:51:46.743Z,60.38
2022-09-06T02:56:52.098Z,61.44
2022-09-06T03:01:54.766Z,61.99
2022-09-06T03:06:57.354Z,62.20
2022-09-06T03:11:59.521Z,62.10
2022-09-06T03:17:02.106Z,60.31
2022-09-06T03:22:04.401Z,61.13
2022-09-06T03:27:06.881Z,60.70
2022-09-06T03:32:09.015Z,60.94
2022-09-06T03:37:12.048Z,59.54
2022-09-06T03:42:14.207Z,60.41
2022-09-06T03:47:19.422Z,59.10
2022-09-06T03:52:21.902Z,60.39
2022-09-06T03:57:23.860Z,58.67
2022-09-06T04:02:26.076Z,59.33
2022-09-06T04:07:28.297Z,60.50
2022-09-06T04:12:30.365Z,58.63
2022-09-06T04:17:32.508Z,59.72
2022-09-06T04:22:34.488Z,58.56
2022-09-06T04:27:36.793Z,59.28
2022-09-06T04:32:38.907Z,59.38
2022-09-06T04:37:40.922Z,58.32
2022-09-06T04:42:43.102Z,58.00
2022-09-06T04:47:45.062Z,57.47
2022-09-06T04:52:47.181Z,57.26
2022-09-06T04:57:51.281Z,56.04
2022-09-06T05:02:53.687Z,56.10
2022-09-06T05:07:56.931Z,55.41
2022-09-06T05:12:59.065Z,55.68
2022-09-06T05:18:04.886Z,54.74
2022-09-06T05:23:07.034Z,54.50
2022-09-06T05:28:09.028Z,53.88
2022-09-06T05:33:16.450Z,54.43
2022-09-06T05:38:19.072Z,54.40
2022-09-06T05:43:21.041Z,53.96
2022-09-06T05:48:23.188Z,53.19
2022-09-06T05:53:25.466Z,54.44
2022-09-06T05:58:27.717Z,53.99
2022-09-06T06:03:29.888Z,53.26
2022-09-06T06:08:32.228Z,52.36
2022-09-06T06:13:39.709Z,51.96
2022-09-06T06:18:41.976Z,51.57
2022-09-06T06:23:46.635Z,50.57
2022-09-06T06:28:49.166Z,51.65
2022-09-06T06:33:51.578Z,52.72
2022-09-06T06:38:55.453Z,53.47
2022-09-06T06:44:01.992Z,53.95
2022-09-06T06:49:05.076Z,54.29
2022-09-06T06:54:07.605Z,52.62
2022-09-06T06:59:09.891Z,52.18
2022-09-06T07:04:12.662Z,51.38
2022-09-06T07:09:15.648Z,50.17
2022-09-06T07:14:18.525Z,43.33
2022-09-06T07:24:42.716Z,33.51
2022-09-06T07:29:44.867Z,33.62
2022-09-06T07:34:47.053Z,35.84
2022-09-06T07:39:49.268Z,37.92
2022-09-06T07:44:51.486Z,39.12
2022-09-06T07:55:15.847Z,42.99
2022-09-06T08:00:19.842Z,47.37
2022-09-06T08:10:44.080Z,46.72
2022-09-06T08:15:46.083Z,45.21
2022-09-06T08:20:48.231Z,45.80
2022-09-06T08:25:57.583Z,44.87
2022-09-06T08:31:16.924Z,46.79
2022-09-06T08:36:19.543Z,46.28
2022-09-06T08:42:05.399Z,44.79
2022-09-06T08:47:11.207Z,43.73
2022-09-06T08:52:28.520Z,42.14
2022-09-06T08:57:40.369Z,40.98
2022-09-06T09:02:44.427Z,41.56
2022-09-06T09:07:59.922Z,42.76
2022-09-06T09:13:07.893Z,44.00
2022-09-06T09:18:10.251Z,44.19
2022-09-06T09:23:12.367Z,43.58
2022-09-06T09:28:19.134Z,43.55
2022-09-06T09:33:25.484Z,43.53
2022-09-06T09:38:31.291Z,44.82
2022-09-06T09:44:05.000Z,45.90
2022-09-06T09:49:11.390Z,46.71
2022-09-06T09:54:29.560Z,46.17
2022-09-06T09:59:42.229Z,43.37
2022-09-06T10:04:50.540Z,41.46
2022-09-06T10:10:00.889Z,41.97
2022-09-06T10:15:06.974Z,43.14
2022-09-06T10:20:12.646Z,43.85
2022-09-06T10:25:32.948Z,45.24
2022-09-06T10:30:41.445Z,45.96
2022-09-06T10:35:43.504Z,46.54
2022-09-06T10:40:54.440Z,45.22
2022-09-06T10:46:09.466Z,46.37
2022-09-06T10:51:32.883Z,46.70
2022-09-06T10:56:52.435Z,46.74
2022-09-06T11:02:03.651Z,46.77
2022-09-06T11:07:17.988Z,45.67
2022-09-06T11:12:29.208Z,46.33
2022-09-06T11:17:56.450Z,50.23
2022-09-06T11:23:11.528Z,50.50
2022-09-06T11:28:22.276Z,51.07
2022-09-06T11:33:29.311Z,51.59
2022-09-06T11:38:31.790Z,51.57
2022-09-06T11:43:54.120Z,51.60
2022-09-06T11:49:02.560Z,51.01
2022-09-06T11:54:10.100Z,49.17
2022-09-06T11:59:24.194Z,47.35
2022-09-06T12:05:01.348Z,45.98
2022-09-06T12:10:40.594Z,44.27
2022-09-06T12:15:52.329Z,41.75
2022-09-06T12:20:54.939Z,42.81
2022-09-06T12:25:57.847Z,41.55
2022-09-06T12:31:01.250Z,41.42
2022-09-06T12:36:18.731Z,41.59
2022-09-06T12:41:22.326Z,41.63
2022-09-06T12:46:25.790Z,43.03
2022-09-06T12:51:28.098Z,44.10
2022-09-06T12:56:33.012Z,47.66
2022-09-06T13:01:37.136Z,48.47
2022-09-06T13:06:45.912Z,49.91
2022-09-06T13:11:51.747Z,50.35
2022-09-06T13:16:57.633Z,50.13
2022-09-06T13:22:00.456Z,49.25
2022-09-06T13:27:24.499Z,48.07
2022-09-06T13:32:30.292Z,47.68
2022-09-06T13:37:36.487Z,47.47
2022-09-06T13:42:38.683Z,45.78
2022-09-06T13:47:40.923Z,47.38
2022-09-06T13:52:43.196Z,46.64
2022-09-06T13:57:45.858Z,47.17
2022-09-06T14:02:49.537Z,48.51
2022-09-06T14:07:51.786Z,48.39
2022-09-06T14:12:54.758Z,48.62
2022-09-06T14:17:56.915Z,49.12
2022-09-06T14:22:59.148Z,48.58
2022-09-06T14:28:02.777Z,47.76
2022-09-06T14:33:05.292Z,46.62
2022-09-06T14:38:07.837Z,46.26
2022-09-06T14:43:10.434Z,46.24
2022-09-06T14:48:12.556Z,46.03
2022-09-06T14:53:38.963Z,45.13
2022-09-06T14:58:39.764Z,45.81
2022-09-06T15:03:44.133Z,46.53
2022-09-06T15:08:46.516Z,46.57
2022-09-06T15:13:48.691Z,46.83
2022-09-06T15:18:50.676Z,45.51
2022-09-06T15:23:53.452Z,46.24
2022-09-06T15:28:55.658Z,45.54
2022-09-06T15:33:58.190Z,46.13
2022-09-06T15:39:01.437Z,45.94
2022-09-06T15:44:14.922Z,45.51
2022-09-06T15:49:27.511Z,45.33
2022-09-06T15:54:49.189Z,45.68
2022-09-06T15:59:51.686Z,46.53
2022-09-06T16:04:53.839Z,46.88
2022-09-06T16:09:56.195Z,47.15
2022-09-06T16:14:58.511Z,47.54
2022-09-06T16:20:01.968Z,48.06
2022-09-06T16:25:05.992Z,47.48
2022-09-06T16:30:09.303Z,49.13
2022-09-06T16:35:12.411Z,50.23
2022-09-06T16:40:14.854Z,50.65
2022-09-06T16:45:17.065Z,51.34
2022-09-06T16:50:19.882Z,51.49
2022-09-06T16:55:22.748Z,51.86
2022-09-06T17:00:25.123Z,51.89
2022-09-06T17:05:27.626Z,51.37
2022-09-06T17:10:30.238Z,51.66
2022-09-06T17:15:52.690Z,50.95
2022-09-06T17:21:01.125Z,50.65
2022-09-06T17:26:04.780Z,50.81
2022-09-06T17:31:08.106Z,51.18
2022-09-06T17:36:13.859Z,51.54
2022-09-06T17:41:24.969Z,51.39
2022-09-06T17:46:29.048Z,51.82
2022-09-06T17:51:31.992Z,52.59
2022-09-06T17:56:35.087Z,51.72
2022-09-06T18:01:38.717Z,52.07
2022-09-06T18:06:43.249Z,52.53
2022-09-06T18:11:48.600Z,52.65
2022-09-06T18:16:52.314Z,52.93
2022-09-06T18:21:55.223Z,52.93
2022-09-06T18:26:57.618Z,52.51
2022-09-06T18:31:59.895Z,53.15
2022-09-06T18:37:02.178Z,52.86
2022-09-06T18:42:10.604Z,53.19
2022-09-06T18:47:12.984Z,52.76
2022-09-06T18:52:15.422Z,53.37
2022-09-06T18:57:17.620Z,53.49
2022-09-06T19:02:20.745Z,53.15
2022-09-06T19:07:23.091Z,53.88
2022-09-06T19:12:25.301Z,53.27
2022-09-06T19:17:27.311Z,51.70
2022-09-06T19:22:29.520Z,53.27
2022-09-06T19:27:31.510Z,50.77
2022-09-06T19:32:34.797Z,52.52
2022-09-06T19:37:37.681Z,53.17
2022-09-06T19:42:39.940Z,53.31
2022-09-06T19:47:42.142Z,54.16
2022-09-06T19:52:44.184Z,51.09
2022-09-06T19:57:46.320Z,53.40
2022-09-06T20:02:48.470Z,51.33
2022-09-06T20:07:50.702Z,52.60
2022-09-06T20:12:53.503Z,51.14
2022-09-06T20:17:55.705Z,53.31
2022-09-06T20:22:57.753Z,50.53
2022-09-06T20:28:00.135Z,53.27
2022-09-06T20:33:02.189Z,51.57
2022-09-06T20:38:04.361Z,53.11
2022-09-06T20:43:06.595Z,53.32
2022-09-06T20:48:08.653Z,51.08
2022-09-06T20:53:10.787Z,52.79
2022-09-06T20:58:12.794Z,51.01
2022-09-06T21:03:15.166Z,53.17
2022-09-06T21:08:18.263Z,53.11
2022-09-06T21:13:20.397Z,53.54
2022-09-06T21:18:23.319Z,51.43
2022-09-06T21:23:26.463Z,53.30
2022-09-06T21:28:31.043Z,53.85
2022-09-06T21:33:33.649Z,53.71
2022-09-06T21:38:38.437Z,54.20
2022-09-06T21:43:41.412Z,53.87
2022-09-06T21:48:49.156Z,53.87
2022-09-06T21:53:52.039Z,54.01
2022-09-06T21:58:56.118Z,53.97
2022-09-06T22:03:58.321Z,53.65
2022-09-06T22:09:04.165Z,54.10
2022-09-06T22:14:09.172Z,54.09
2022-09-06T22:19:11.919Z,53.86
2022-09-06T22:24:16.148Z,53.75
2022-09-06T22:29:18.314Z,53.87
2022-09-06T22:34:20.365Z,51.58
2022-09-06T22:39:22.474Z,53.93
2022-09-06T22:44:26.378Z,51.89
2022-09-06T22:49:28.552Z,55.53
2022-09-06T22:54:30.512Z,52.53
2022-09-06T22:59:35.884Z,56.19
2022-09-06T23:04:38.110Z,56.82
2022-09-06T23:09:40.294Z,56.92
2022-09-06T23:14:42.651Z,53.14
2022-09-06T23:19:45.597Z,56.88
2022-09-06T23:24:47.778Z,57.70
2022-09-06T23:29:49.752Z,54.14
2022-09-06T23:34:51.917Z,57.45
2022-09-06T23:39:53.925Z,54.38
2022-09-06T23:44:59.142Z,58.17
2022-09-06T23:50:01.296Z,58.56
2022-09-06T23:55:06.321Z,58.44
